createdAt,value
2022-11-19T07:10:25.291Z,4.53
2022-11-19T07:13:48.610Z,5.22
2022-11-19T07:16:51.143Z,4.53
2022-11-19T07:19:53.607Z,4.68
2022-11-19T07:22:59.207Z,4.60
2022-11-19T07:26:03.619Z,4.30
2022-11-19T08:35:14.618Z,5.00
2022-11-19T08:38:17.159Z,5.47
2022-11-19T08:41:36.404Z,5.88
2022-11-19T08:44:39.088Z,5.72
2022-11-19T08:47:41.629Z,5.40
2022-11-19T08:50:45.839Z,5.20
2022-11-19T08:53:48.414Z,5.57
2022-11-19T08:56:50.936Z,5.70
2022-11-19T08:59:53.412Z,4.95
2022-11-19T09:02:56.049Z,4.78
2022-11-19T09:06:01.277Z,4.70
2022-11-19T09:09:03.866Z,5.45
2022-11-19T09:12:06.926Z,4.82
2022-11-19T09:15:10.294Z,5.03
2022-11-19T09:18:14.519Z,4.40
2022-11-19T09:21:18.459Z,4.78
2022-11-19T09:24:21.314Z,4.18
2022-11-19T09:27:24.068Z,4.18
2022-11-19T09:30:27.108Z,4.78
2022-11-19T09:33:31.613Z,4.53
2022-11-19T09:36:35.405Z,4.28
2022-11-19T09:39:38.264Z,3.90
2022-11-19T09:42:51.754Z,4.05
2022-11-19T09:46:03.233Z,4.20
2022-11-19T09:49:12.071Z,3.95
2022-11-19T09:52:21.031Z,3.25
2022-11-19T09:55:30.321Z,3.95
2022-11-19T09:58:38.743Z,3.25
2022-11-19T10:01:41.261Z,4.35
2022-11-19T10:04:44.155Z,3.53
2022-11-19T10:07:59.683Z,3.97
2022-11-19T10:11:15.532Z,3.60
2022-11-19T10:14:44.460Z,3.50
2022-11-19T10:17:58.970Z,4.10
2022-11-19T10:21:08.095Z,3.97
2022-11-19T10:24:18.199Z,3.70
2022-11-19T10:27:28.735Z,4.28
2022-11-19T10:30:32.134Z,3.15
2022-11-19T10:33:38.309Z,3.72
2022-11-19T10:36:44.140Z,4.00
2022-11-19T10:39:53.163Z,3.42
2022-11-19T10:42:59.741Z,4.00
2022-11-19T10:46:05.361Z,3.78
2022-11-19T10:49:11.571Z,3.35
2022-11-19T10:52:24.825Z,3.35
2022-11-19T10:55:33.204Z,3.47
2022-11-19T10:58:40.114Z,3.28
2022-11-19T11:01:44.774Z,3.25
2022-11-19T11:05:06.645Z,2.90
2022-11-19T11:08:11.790Z,3.40
2022-11-19T11:11:23.642Z,3.03
2022-11-19T11:14:44.364Z,2.90
2022-11-19T11:17:48.117Z,3.00
2022-11-19T11:20:52.892Z,2.92
2022-11-19T11:23:56.499Z,3.05
2022-11-19T11:27:25.854Z,3.22
2022-11-19T11:30:28.473Z,3.40
2022-11-19T11:33:34.197Z,4.32
2022-11-19T11:36:37.991Z,3.60
2022-11-19T11:39:44.189Z,3.70
2022-11-19T11:42:48.140Z,3.45
2022-11-19T11:45:57.790Z,3.72
2022-11-19T11:49:06.888Z,4.38
2022-11-19T11:52:19.893Z,4.57
2022-11-19T11:55:32.451Z,4.32
2022-11-19T11:58:36.240Z,4.20
2022-11-19T12:01:39.106Z,4.22
2022-11-19T12:04:42.368Z,5.10
2022-11-19T12:08:03.963Z,4.80
2022-11-19T12:11:16.114Z,5.03
2022-11-19T12:14:24.858Z,4.72
2022-11-19T12:17:41.315Z,4.95
2022-11-19T12:20:51.129Z,5.40
2022-11-19T12:24:06.631Z,5.20
2022-11-19T12:27:20.795Z,4.82
2022-11-19T12:30:30.397Z,4.70
2022-11-19T12:33:54.146Z,5.20
2022-11-19T12:37:06.622Z,4.80
2022-11-19T12:40:21.879Z,6.15
2022-11-19T12:43:44.729Z,5.60
2022-11-19T12:46:54.939Z,5.05
2022-11-19T12:50:11.272Z,4.88
2022-11-19T12:53:36.497Z,4.93
2022-11-19T12:56:47.599Z,3.85
2022-11-19T13:00:14.058Z,3.85
2022-11-19T13:03:21.997Z,5.05
2022-11-19T13:06:32.342Z,4.05
2022-11-19T13:09:39.655Z,4.00
